PWSweather.com
Personal Weather Stations
Station Observations
DELHOVEN
DormagenDE 41540

DormagenDE 41540

Lat: 51.083, Lon: 6.775

Elevation: 120

Station Type: WH1080

Latest ConditionsUpdated 2:32:24 PM GMT+01:01 Friday, Dec 19, 2014
Currently Today's Max Today's Min Today's Average
Temperature 50.7°F10.4°C 55.4°F13.0°C 50.7°F10.4°C 53.7°F12.1°C
Dew Point 46.7°F8.2°C 50.0°F10.0°C 46.7°F8.2°C 48.7°F9.3°C
Winds 11.4 mph NW18.3 kmh NW 19.7 mph W31.7 kmh W - 11.6 mph 18.7 kmh
Wind Gusts 17.4 mph28.0 kmh 28.2 mph45.4 kmh - -
Humidity 86% 88% 80% 83%
Pressure 29.90 in1012.5 mb 29.95 in1014.2 mb 29.85 in1010.8 mb -
Precipitation - 0.21 in5.3 mm - -
Hour Temp Dew Point Humidity Winds Wind Gusts Pressure Precip Precip Rate Daily Precip Total
02:32 PM 50.7°F10.4°C 46.7°F8.2°C 86% 11.4 mph NW18.3 kmh NW 17.4 mph28.0 kmh 29.90 in1012.5 mb 0.08 in2.0 mm 0.00 in/hr0.0 mm/hr 0.21 in5.3 mm
02:27 PM 50.9°F10.5°C 47.2°F8.4°C 87% 10.7 mph NW17.2 kmh NW 14.5 mph23.3 kmh 29.90 in1012.5 mb 0.08 in2.0 mm 0.12 in/hr3.0 mm/hr 0.21 in5.3 mm
02:22 PM 51.4°F10.8°C 47.7°F8.7°C 87% 13.0 mph NW20.9 kmh NW 15.9 mph25.6 kmh 29.90 in1012.5 mb 0.07 in1.8 mm 0.00 in/hr0.0 mm/hr 0.20 in5.1 mm
02:17 PM 51.8°F11.0°C 48.1°F8.9°C 87% 10.7 mph 17.2 kmh 15.2 mph24.5 kmh 29.90 in1012.5 mb 0.07 in1.8 mm 0.12 in/hr3.0 mm/hr 0.20 in5.1 mm
02:12 PM 52.2°F11.2°C 48.4°F9.1°C 87% 10.7 mph NW17.2 kmh NW 13.0 mph20.9 kmh 29.90 in1012.5 mb 0.06 in1.5 mm 0.00 in/hr0.0 mm/hr 0.19 in4.8 mm
02:07 PM 52.7°F11.5°C 49.2°F9.6°C 88% 9.8 mph NW15.8 kmh NW 13.6 mph21.9 kmh 29.88 in1011.9 mb 0.06 in1.5 mm 0.00 in/hr0.0 mm/hr 0.19 in4.8 mm
02:02 PM 52.7°F11.5°C 49.2°F9.6°C 88% 9.8 mph NW15.8 kmh NW 13.6 mph21.9 kmh 29.89 in1012.2 mb 0.06 in1.5 mm 0.00 in/hr0.0 mm/hr 0.19 in4.8 mm
01:57 PM 52.7°F11.5°C 49.2°F9.6°C 88% 10.7 mph NW17.2 kmh NW 14.5 mph23.3 kmh 29.88 in1011.9 mb 0.06 in1.5 mm 0.00 in/hr0.0 mm/hr 0.19 in4.8 mm
01:52 PM 52.9°F11.6°C 49.4°F9.7°C 88% 7.6 mph WNW12.2 kmh WNW 12.1 mph19.5 kmh 29.88 in1011.9 mb 0.06 in1.5 mm 0.12 in/hr3.0 mm/hr 0.18 in4.6 mm
01:47 PM 53.1°F11.7°C 49.3°F9.6°C 87% 9.8 mph NW15.8 kmh NW 13.0 mph20.9 kmh 29.88 in1011.9 mb 0.05 in1.3 mm 0.24 in/hr6.1 mm/hr 0.17 in4.3 mm
01:42 PM 53.2°F11.8°C 49.5°F9.7°C 87% 9.8 mph NW15.8 kmh NW 13.6 mph21.9 kmh 29.87 in1011.5 mb 0.03 in0.8 mm 0.24 in/hr6.1 mm/hr 0.15 in3.8 mm
01:37 PM 53.2°F11.8°C 49.5°F9.7°C 87% 10.7 mph NW17.2 kmh NW 17.4 mph28.0 kmh 29.86 in1011.2 mb 0.01 in0.3 mm 0.00 in/hr0.0 mm/hr 0.13 in3.3 mm
01:32 PM 53.2°F11.8°C 49.5°F9.7°C 87% 9.2 mph NW14.8 kmh NW 16.8 mph27.0 kmh 29.86 in1011.2 mb 0.02 in0.5 mm 0.12 in/hr3.0 mm/hr 0.13 in3.3 mm
01:27 PM 53.4°F11.9°C 49.3°F9.6°C 86% 6.9 mph SW11.1 kmh SW 10.7 mph17.2 kmh 29.86 in1011.2 mb 0.01 in0.3 mm 0.00 in/hr0.0 mm/hr 0.13 in3.3 mm
01:22 PM 53.4°F11.9°C 49.3°F9.6°C 86% 9.8 mph NW15.8 kmh NW 13.0 mph20.9 kmh 29.86 in1011.2 mb 0.02 in0.5 mm 0.00 in/hr0.0 mm/hr 0.13 in3.3 mm
01:17 PM 53.4°F11.9°C 49.3°F9.6°C 86% 14.5 mph SW23.3 kmh SW 17.4 mph28.0 kmh 29.86 in1011.2 mb 0.02 in0.5 mm 0.00 in/hr0.0 mm/hr 0.13 in3.3 mm
01:12 PM 53.4°F11.9°C 49.3°F9.6°C 86% 14.5 mph SW23.3 kmh SW 22.1 mph35.6 kmh 29.86 in1011.2 mb 0.02 in0.5 mm 0.00 in/hr0.0 mm/hr 0.13 in3.3 mm
01:07 PM 53.4°F11.9°C 49.3°F9.6°C 86% 9.2 mph W14.8 kmh W 13.6 mph21.9 kmh 29.86 in1011.2 mb 0.02 in0.5 mm 0.00 in/hr0.0 mm/hr 0.13 in3.3 mm
01:02 PM 53.2°F11.8°C 49.2°F9.6°C 86% 10.7 mph WSW17.2 kmh WSW 17.4 mph28.0 kmh 29.85 in1010.8 mb 0.02 in0.5 mm 0.00 in/hr0.0 mm/hr 0.13 in3.3 mm
12:57 PM 53.2°F11.8°C 49.2°F9.6°C 86% 8.3 mph NW13.4 kmh NW 13.0 mph20.9 kmh 29.86 in1011.2 mb 0.02 in0.5 mm 0.00 in/hr0.0 mm/hr 0.13 in3.3 mm
12:52 PM 53.1°F11.7°C 49.0°F9.4°C 86% 8.3 mph W13.4 kmh W 17.4 mph28.0 kmh 29.86 in1011.2 mb 0.02 in0.5 mm 0.00 in/hr0.0 mm/hr 0.13 in3.3 mm
12:47 PM 53.1°F11.7°C 49.0°F9.4°C 86% 8.3 mph NW13.4 kmh NW 16.8 mph27.0 kmh 29.87 in1011.5 mb 0.02 in0.5 mm 0.00 in/hr0.0 mm/hr 0.12 in3.0 mm
12:42 PM 53.1°F11.7°C 49.0°F9.4°C 86% 18.3 mph NNW29.5 kmh NNW 19.7 mph31.7 kmh 29.86 in1011.2 mb 0.02 in0.5 mm 0.00 in/hr0.0 mm/hr 0.12 in3.0 mm
12:37 PM 53.1°F11.7°C 49.0°F9.4°C 86% 10.7 mph WNW17.2 kmh WNW 16.8 mph27.0 kmh 29.86 in1011.2 mb 0.02 in0.5 mm 0.00 in/hr0.0 mm/hr 0.12 in3.0 mm
12:32 PM 53.1°F11.7°C 49.0°F9.4°C 86% 6.0 mph NW9.7 kmh NW 13.0 mph20.9 kmh 29.87 in1011.5 mb 0.02 in0.5 mm 0.00 in/hr0.0 mm/hr 0.12 in3.0 mm
12:27 PM 53.1°F11.7°C 49.0°F9.4°C 86% 19.0 mph ENE30.6 kmh ENE 25.9 mph41.7 kmh 29.87 in1011.5 mb 0.02 in0.5 mm 0.12 in/hr3.0 mm/hr 0.11 in2.8 mm
12:22 PM 53.1°F11.7°C 48.7°F9.3°C 85% 13.6 mph NW21.9 kmh NW 22.8 mph36.7 kmh 29.86 in1011.2 mb 0.01 in0.3 mm 0.00 in/hr0.0 mm/hr 0.11 in2.8 mm
12:17 PM 53.1°F11.7°C 48.7°F9.3°C 85% 12.1 mph NW19.5 kmh NW 17.4 mph28.0 kmh 29.87 in1011.5 mb 0.01 in0.3 mm 0.00 in/hr0.0 mm/hr 0.11 in2.8 mm
12:12 PM 53.1°F11.7°C 48.7°F9.3°C 85% 13.6 mph NW21.9 kmh NW 18.3 mph29.5 kmh 29.87 in1011.5 mb 0.02 in0.5 mm 0.12 in/hr3.0 mm/hr 0.11 in2.8 mm
12:07 PM 53.2°F11.8°C 48.8°F9.3°C 85% 7.6 mph SW12.2 kmh SW 13.0 mph20.9 kmh 29.87 in1011.5 mb 0.01 in0.3 mm 0.00 in/hr0.0 mm/hr 0.10 in2.5 mm
12:02 PM 53.2°F11.8°C 48.8°F9.3°C 85% 7.6 mph SW12.2 kmh SW 13.0 mph20.9 kmh 29.86 in1011.2 mb 0.01 in0.3 mm 0.00 in/hr0.0 mm/hr 0.10 in2.5 mm
11:57 AM 53.2°F11.8°C 48.8°F9.3°C 85% 9.2 mph NW14.8 kmh NW 13.6 mph21.9 kmh 29.87 in1011.5 mb 0.01 in0.3 mm 0.00 in/hr0.0 mm/hr 0.10 in2.5 mm
11:52 AM 53.2°F11.8°C 48.8°F9.3°C 85% 11.4 mph S18.3 kmh S 19.7 mph31.7 kmh 29.87 in1011.5 mb 0.01 in0.3 mm 0.00 in/hr0.0 mm/hr 0.10 in2.5 mm
11:47 AM 53.2°F11.8°C 48.8°F9.3°C 85% 14.5 mph W23.3 kmh W 20.6 mph33.2 kmh 29.87 in1011.5 mb 0.01 in0.3 mm 0.00 in/hr0.0 mm/hr 0.10 in2.5 mm
11:42 AM 53.2°F11.8°C 48.8°F9.3°C 85% 10.7 mph W17.2 kmh W 18.3 mph29.5 kmh 29.87 in1011.5 mb 0.01 in0.3 mm 0.00 in/hr0.0 mm/hr 0.10 in2.5 mm
11:37 AM 53.2°F11.8°C 48.8°F9.3°C 85% 9.2 mph SW14.8 kmh SW 15.9 mph25.6 kmh 29.87 in1011.5 mb 0.01 in0.3 mm 0.00 in/hr0.0 mm/hr 0.10 in2.5 mm
11:32 AM 53.2°F11.8°C 48.8°F9.3°C 85% 9.2 mph S14.8 kmh S 13.0 mph20.9 kmh 29.87 in1011.5 mb 0.01 in0.3 mm 0.00 in/hr0.0 mm/hr 0.10 in2.5 mm
11:27 AM 53.1°F11.7°C 48.7°F9.3°C 85% 11.4 mph NW18.3 kmh NW 15.9 mph25.6 kmh 29.87 in1011.5 mb 0.01 in0.3 mm 0.00 in/hr0.0 mm/hr 0.09 in2.3 mm
11:22 AM 53.1°F11.7°C 48.7°F9.3°C 85% 15.2 mph WNW24.5 kmh WNW 25.1 mph40.4 kmh 29.87 in1011.5 mb 0.01 in0.3 mm 0.00 in/hr0.0 mm/hr 0.09 in2.3 mm
11:17 AM 53.1°F11.7°C 48.7°F9.3°C 85% 10.7 mph 17.2 kmh 16.8 mph27.0 kmh 29.87 in1011.5 mb 0.02 in0.5 mm 0.12 in/hr3.0 mm/hr 0.09 in2.3 mm
11:12 AM 52.9°F11.6°C 48.5°F9.2°C 85% 11.4 mph SW18.3 kmh SW 15.2 mph24.5 kmh 29.87 in1011.5 mb 0.01 in0.3 mm 0.00 in/hr0.0 mm/hr 0.09 in2.3 mm
11:07 AM 52.7°F11.5°C 48.6°F9.2°C 86% 12.1 mph WNW19.5 kmh WNW 14.5 mph23.3 kmh 29.87 in1011.5 mb 0.02 in0.5 mm 0.00 in/hr0.0 mm/hr 0.09 in2.3 mm
11:02 AM 52.7°F11.5°C 48.6°F9.2°C 86% 13.6 mph NE21.9 kmh NE 19.0 mph30.6 kmh 29.87 in1011.5 mb 0.02 in0.5 mm 0.00 in/hr0.0 mm/hr 0.09 in2.3 mm
10:57 AM 52.7°F11.5°C 48.6°F9.2°C 86% 9.8 mph S15.8 kmh S 17.4 mph28.0 kmh 29.87 in1011.5 mb 0.02 in0.5 mm 0.00 in/hr0.0 mm/hr 0.09 in2.3 mm
10:52 AM 52.7°F11.5°C 48.6°F9.2°C 86% 14.5 mph WNW23.3 kmh WNW 17.4 mph28.0 kmh 29.88 in1011.9 mb 0.03 in0.8 mm 0.00 in/hr0.0 mm/hr 0.09 in2.3 mm
10:47 AM 52.7°F11.5°C 48.6°F9.2°C 86% 9.8 mph SW15.8 kmh SW 14.5 mph23.3 kmh 29.87 in1011.5 mb 0.03 in0.8 mm 0.00 in/hr0.0 mm/hr 0.09 in2.3 mm
10:42 AM 52.7°F11.5°C 48.6°F9.2°C 86% 11.4 mph NW18.3 kmh NW 15.9 mph25.6 kmh 29.87 in1011.5 mb 0.04 in1.0 mm 0.00 in/hr0.0 mm/hr 0.09 in2.3 mm
10:37 AM 52.7°F11.5°C 48.6°F9.2°C 86% 9.8 mph SW15.8 kmh SW 13.6 mph21.9 kmh 29.87 in1011.5 mb 0.04 in1.0 mm 0.00 in/hr0.0 mm/hr 0.08 in2.0 mm
10:32 AM 52.7°F11.5°C 48.6°F9.2°C 86% 7.6 mph NW12.2 kmh NW 11.4 mph18.3 kmh 29.87 in1011.5 mb 0.05 in1.3 mm 0.00 in/hr0.0 mm/hr 0.08 in2.0 mm
10:27 AM 52.7°F11.5°C 48.6°F9.2°C 86% 10.7 mph SW17.2 kmh SW 17.4 mph28.0 kmh 29.87 in1011.5 mb 0.05 in1.3 mm 0.00 in/hr0.0 mm/hr 0.08 in2.0 mm
10:22 AM 52.7°F11.5°C 48.6°F9.2°C 86% 13.0 mph SE20.9 kmh SE 21.3 mph34.3 kmh 29.87 in1011.5 mb 0.07 in1.8 mm 0.00 in/hr0.0 mm/hr 0.08 in2.0 mm
10:17 AM 52.7°F11.5°C 48.6°F9.2°C 86% 16.8 mph NNE27.0 kmh NNE 23.5 mph37.8 kmh 29.87 in1011.5 mb 0.07 in1.8 mm 0.00 in/hr0.0 mm/hr 0.07 in1.8 mm
10:12 AM 52.5°F11.4°C 48.5°F9.2°C 86% 11.4 mph NW18.3 kmh NW 19.0 mph30.6 kmh 29.87 in1011.5 mb 0.07 in1.8 mm 0.00 in/hr0.0 mm/hr 0.07 in1.8 mm
10:07 AM 52.3°F11.3°C 48.3°F9.1°C 86% 15.2 mph SW24.5 kmh SW 18.3 mph29.5 kmh 29.87 in1011.5 mb 0.07 in1.8 mm 0.00 in/hr0.0 mm/hr 0.07 in1.8 mm
10:02 AM 52.3°F11.3°C 48.3°F9.1°C 86% 15.2 mph SW24.5 kmh SW 18.3 mph29.5 kmh 29.87 in1011.5 mb 0.07 in1.8 mm 0.00 in/hr0.0 mm/hr 0.07 in1.8 mm
09:57 AM 52.3°F11.3°C 48.3°F9.1°C 86% 14.5 mph NW23.3 kmh NW 19.0 mph30.6 kmh 29.87 in1011.5 mb 0.07 in1.8 mm 0.12 in/hr3.0 mm/hr 0.07 in1.8 mm
09:52 AM 52.3°F11.3°C 48.3°F9.1°C 86% 9.8 mph WSW15.8 kmh WSW 15.9 mph25.6 kmh 29.87 in1011.5 mb 0.06 in1.5 mm 0.12 in/hr3.0 mm/hr 0.06 in1.5 mm
09:47 AM 52.3°F11.3°C 48.3°F9.1°C 86% 13.0 mph NW20.9 kmh NW 19.7 mph31.7 kmh 29.86 in1011.2 mb 0.05 in1.3 mm 0.12 in/hr3.0 mm/hr 0.05 in1.3 mm
09:42 AM 52.3°F11.3°C 48.0°F8.9°C 85% 11.4 mph NW18.3 kmh NW 18.3 mph29.5 kmh 29.87 in1011.5 mb 0.04 in1.0 mm 0.00 in/hr0.0 mm/hr 0.04 in1.0 mm
09:37 AM 52.3°F11.3°C 48.0°F8.9°C 85% 9.2 mph S14.8 kmh S 14.5 mph23.3 kmh 29.87 in1011.5 mb 0.04 in1.0 mm 0.12 in/hr3.0 mm/hr 0.04 in1.0 mm
09:32 AM 52.3°F11.3°C 48.0°F8.9°C 85% 10.7 mph W17.2 kmh W 15.9 mph25.6 kmh 29.87 in1011.5 mb 0.03 in0.8 mm 0.12 in/hr3.0 mm/hr 0.03 in0.8 mm
09:27 AM 52.5°F11.4°C 48.1°F8.9°C 85% 8.3 mph NW13.4 kmh NW 13.6 mph21.9 kmh 29.87 in1011.5 mb 0.02 in0.5 mm 0.12 in/hr3.0 mm/hr 0.02 in0.5 mm
09:22 AM 52.5°F11.4°C 48.1°F8.9°C 85% 9.8 mph SW15.8 kmh SW 16.8 mph27.0 kmh 29.87 in1011.5 mb 0.01 in0.3 mm 0.00 in/hr0.0 mm/hr 0.01 in0.3 mm
09:17 AM 52.7°F11.5°C 48.3°F9.1°C 85% 13.0 mph S20.9 kmh S 23.5 mph37.8 kmh 29.87 in1011.5 mb 0.01 in0.3 mm 0.12 in/hr3.0 mm/hr 0.01 in0.3 mm
09:12 AM 52.7°F11.5°C 48.0°F8.9°C 84% 13.0 mph NW20.9 kmh NW 22.8 mph36.7 kmh 29.87 in1011.5 mb 0.00 in0.0 mm 0.00 in/hr0.0 mm/hr 0.00 in0.0 mm
09:07 AM 52.7°F11.5°C 48.0°F8.9°C 84% 14.5 mph NW23.3 kmh NW 19.7 mph31.7 kmh 29.87 in1011.5 mb 0.00 in0.0 mm 0.00 in/hr0.0 mm/hr 0.00 in0.0 mm
09:02 AM 52.9°F11.6°C 48.2°F9.0°C 84% 10.7 mph SW17.2 kmh SW 22.1 mph35.6 kmh 29.87 in1011.5 mb 0.00 in0.0 mm 0.00 in/hr0.0 mm/hr 0.00 in0.0 mm
08:57 AM 53.1°F11.7°C 48.0°F8.9°C 83% 14.5 mph NW23.3 kmh NW 17.4 mph28.0 kmh 29.87 in1011.5 mb 0.00 in0.0 mm 0.00 in/hr0.0 mm/hr 0.00 in0.0 mm
08:52 AM 53.2°F11.8°C 48.2°F9.0°C 83% 14.5 mph NNE23.3 kmh NNE 22.8 mph36.7 kmh 29.87 in1011.5 mb 0.00 in0.0 mm 0.00 in/hr0.0 mm/hr 0.00 in0.0 mm
08:47 AM 53.6°F12.0°C 47.9°F8.8°C 81% 7.6 mph NW12.2 kmh NW 12.1 mph19.5 kmh 29.87 in1011.5 mb 0.00 in0.0 mm 0.00 in/hr0.0 mm/hr 0.00 in0.0 mm
08:42 AM 53.6°F12.0°C 47.9°F8.8°C 81% 10.7 mph NW17.2 kmh NW 19.7 mph31.7 kmh 29.87 in1011.5 mb 0.00 in0.0 mm 0.00 in/hr0.0 mm/hr 0.00 in0.0 mm
08:37 AM 53.8°F12.1°C 48.1°F8.9°C 81% 10.7 mph S17.2 kmh S 20.6 mph33.2 kmh 29.87 in1011.5 mb 0.00 in0.0 mm 0.00 in/hr0.0 mm/hr 0.00 in0.0 mm
08:32 AM 53.8°F12.1°C 48.1°F8.9°C 81% 13.6 mph SW21.9 kmh SW 20.6 mph33.2 kmh 29.87 in1011.5 mb 0.00 in0.0 mm 0.00 in/hr0.0 mm/hr 0.00 in0.0 mm
08:27 AM 54.0°F12.2°C 47.9°F8.8°C 80% 16.8 mph NNE27.0 kmh NNE 22.1 mph35.6 kmh 29.87 in1011.5 mb 0.00 in0.0 mm 0.00 in/hr0.0 mm/hr 0.00 in0.0 mm
08:22 AM 54.1°F12.3°C 48.1°F8.9°C 80% 9.8 mph W15.8 kmh W 15.9 mph25.6 kmh 29.87 in1011.5 mb 0.00 in0.0 mm 0.00 in/hr0.0 mm/hr 0.00 in0.0 mm
08:17 AM 54.0°F12.2°C 47.9°F8.8°C 80% 13.0 mph SW20.9 kmh SW 16.8 mph27.0 kmh 29.87 in1011.5 mb 0.00 in0.0 mm 0.00 in/hr0.0 mm/hr 0.00 in0.0 mm
08:12 AM 54.1°F12.3°C 48.1°F8.9°C 80% 12.1 mph NW19.5 kmh NW 17.4 mph28.0 kmh 29.87 in1011.5 mb 0.00 in0.0 mm 0.00 in/hr0.0 mm/hr 0.00 in0.0 mm
08:07 AM 54.1°F12.3°C 48.1°F8.9°C 80% 15.9 mph NNW25.6 kmh NNW 22.1 mph35.6 kmh 29.87 in1011.5 mb 0.00 in0.0 mm 0.00 in/hr0.0 mm/hr 0.00 in0.0 mm
08:02 AM 54.1°F12.3°C 48.1°F8.9°C 80% 15.9 mph NNW25.6 kmh NNW 22.1 mph35.6 kmh 29.86 in1011.2 mb 0.00 in0.0 mm 0.00 in/hr0.0 mm/hr 0.00 in0.0 mm
07:57 AM 54.1°F12.3°C 48.1°F8.9°C 80% 16.8 mph S27.0 kmh S 25.9 mph41.7 kmh 29.87 in1011.5 mb 0.00 in0.0 mm 0.00 in/hr0.0 mm/hr 0.00 in0.0 mm
07:52 AM 54.1°F12.3°C 48.4°F9.1°C 81% 13.6 mph S21.9 kmh S 21.3 mph34.3 kmh 29.87 in1011.5 mb 0.00 in0.0 mm 0.00 in/hr0.0 mm/hr 0.00 in0.0 mm
07:47 AM 54.1°F12.3°C 48.4°F9.1°C 81% 12.1 mph NW19.5 kmh NW 18.3 mph29.5 kmh 29.88 in1011.9 mb 0.00 in0.0 mm 0.00 in/hr0.0 mm/hr 0.00 in0.0 mm
07:42 AM 54.0°F12.2°C 48.3°F9.1°C 81% 12.1 mph WSW19.5 kmh WSW 17.4 mph28.0 kmh 29.87 in1011.5 mb 0.00 in0.0 mm 0.00 in/hr0.0 mm/hr 0.00 in0.0 mm
07:37 AM 54.0°F12.2°C 48.3°F9.1°C 81% 16.8 mph WSW27.0 kmh WSW 28.2 mph45.4 kmh 29.87 in1011.5 mb 0.00 in0.0 mm 0.00 in/hr0.0 mm/hr 0.00 in0.0 mm
07:32 AM 54.0°F12.2°C 48.3°F9.1°C 81% 12.1 mph NW19.5 kmh NW 17.4 mph28.0 kmh 29.87 in1011.5 mb 0.00 in0.0 mm 0.00 in/hr0.0 mm/hr 0.00 in0.0 mm
07:27 AM 54.0°F12.2°C 48.3°F9.1°C 81% 14.5 mph NW23.3 kmh NW 26.6 mph42.8 kmh 29.88 in1011.9 mb 0.00 in0.0 mm 0.00 in/hr0.0 mm/hr 0.00 in0.0 mm
07:22 AM 54.1°F12.3°C 48.4°F9.1°C 81% 13.0 mph SW20.9 kmh SW 19.0 mph30.6 kmh 29.87 in1011.5 mb 0.00 in0.0 mm 0.00 in/hr0.0 mm/hr 0.00 in0.0 mm
07:17 AM 54.0°F12.2°C 48.3°F9.1°C 81% 15.9 mph SW25.6 kmh SW 23.5 mph37.8 kmh 29.88 in1011.9 mb 0.00 in0.0 mm 0.00 in/hr0.0 mm/hr 0.00 in0.0 mm
07:12 AM 54.0°F12.2°C 48.3°F9.1°C 81% 11.4 mph S18.3 kmh S 16.8 mph27.0 kmh 29.88 in1011.9 mb 0.00 in0.0 mm 0.00 in/hr0.0 mm/hr 0.00 in0.0 mm
07:07 AM 54.0°F12.2°C 48.3°F9.1°C 81% 13.6 mph SW21.9 kmh SW 21.3 mph34.3 kmh 29.89 in1012.2 mb 0.00 in0.0 mm 0.00 in/hr0.0 mm/hr 0.00 in0.0 mm
07:02 AM 54.1°F12.3°C 48.4°F9.1°C 81% 8.3 mph SW13.4 kmh SW 17.4 mph28.0 kmh 29.89 in1012.2 mb 0.00 in0.0 mm 0.00 in/hr0.0 mm/hr 0.00 in0.0 mm
06:57 AM 54.1°F12.3°C 48.4°F9.1°C 81% 9.8 mph NW15.8 kmh NW 15.2 mph24.5 kmh 29.89 in1012.2 mb 0.00 in0.0 mm 0.00 in/hr0.0 mm/hr 0.00 in0.0 mm
06:52 AM 54.3°F12.4°C 48.3°F9.1°C 80% 13.0 mph S20.9 kmh S 17.4 mph28.0 kmh 29.89 in1012.2 mb 0.00 in0.0 mm 0.00 in/hr0.0 mm/hr 0.00 in0.0 mm
06:47 AM 54.3°F12.4°C 48.3°F9.1°C 80% 12.1 mph NW19.5 kmh NW 17.4 mph28.0 kmh 29.89 in1012.2 mb 0.00 in0.0 mm 0.00 in/hr0.0 mm/hr 0.00 in0.0 mm
06:42 AM 54.3°F12.4°C 48.3°F9.1°C 80% 12.1 mph NNW19.5 kmh NNW 14.5 mph23.3 kmh 29.89 in1012.2 mb 0.00 in0.0 mm 0.00 in/hr0.0 mm/hr 0.00 in0.0 mm
06:37 AM 54.3°F12.4°C 48.3°F9.1°C 80% 8.3 mph SW13.4 kmh SW 13.6 mph21.9 kmh 29.89 in1012.2 mb 0.00 in0.0 mm 0.00 in/hr0.0 mm/hr 0.00 in0.0 mm
06:32 AM 54.3°F12.4°C 48.3°F9.1°C 80% 15.9 mph SW25.6 kmh SW 19.7 mph31.7 kmh 29.89 in1012.2 mb 0.00 in0.0 mm 0.00 in/hr0.0 mm/hr 0.00 in0.0 mm
06:27 AM 54.3°F12.4°C 48.3°F9.1°C 80% 9.8 mph NW15.8 kmh NW 14.5 mph23.3 kmh 29.89 in1012.2 mb 0.00 in0.0 mm 0.00 in/hr0.0 mm/hr 0.00 in0.0 mm
06:22 AM 54.3°F12.4°C 48.3°F9.1°C 80% 10.7 mph W17.2 kmh W 16.8 mph27.0 kmh 29.89 in1012.2 mb 0.00 in0.0 mm 0.00 in/hr0.0 mm/hr 0.00 in0.0 mm
06:17 AM 54.5°F12.5°C 48.5°F9.2°C 80% 6.0 mph WNW9.7 kmh WNW 12.1 mph19.5 kmh 29.89 in1012.2 mb 0.00 in0.0 mm 0.00 in/hr0.0 mm/hr 0.00 in0.0 mm
06:12 AM 54.5°F12.5°C 48.5°F9.2°C 80% 10.7 mph NW17.2 kmh NW 14.5 mph23.3 kmh 29.90 in1012.5 mb 0.00 in0.0 mm 0.00 in/hr0.0 mm/hr 0.00 in0.0 mm
06:07 AM 54.1°F12.3°C 48.4°F9.1°C 81% 18.3 mph NW29.5 kmh NW 28.2 mph45.4 kmh 29.89 in1012.2 mb 0.00 in0.0 mm 0.00 in/hr0.0 mm/hr 0.00 in0.0 mm
06:02 AM 54.1°F12.3°C 48.4°F9.1°C 81% 18.3 mph NW29.5 kmh NW 28.2 mph45.4 kmh 29.90 in1012.5 mb 0.00 in0.0 mm 0.00 in/hr0.0 mm/hr 0.00 in0.0 mm
05:57 AM 54.1°F12.3°C 48.4°F9.1°C 81% 10.7 mph NW17.2 kmh NW 15.2 mph24.5 kmh 29.90 in1012.5 mb 0.00 in0.0 mm 0.00 in/hr0.0 mm/hr 0.00 in0.0 mm
05:52 AM 54.1°F12.3°C 48.4°F9.1°C 81% 11.4 mph NW18.3 kmh NW 21.3 mph34.3 kmh 29.90 in1012.5 mb 0.00 in0.0 mm 0.00 in/hr0.0 mm/hr 0.00 in0.0 mm
05:47 AM 54.1°F12.3°C 48.4°F9.1°C 81% 7.6 mph S12.2 kmh S 14.5 mph23.3 kmh 29.90 in1012.5 mb 0.00 in0.0 mm 0.00 in/hr0.0 mm/hr 0.00 in0.0 mm
05:42 AM 54.1°F12.3°C 48.4°F9.1°C 81% 9.8 mph SW15.8 kmh SW 16.8 mph27.0 kmh 29.90 in1012.5 mb 0.00 in0.0 mm 0.00 in/hr0.0 mm/hr 0.00 in0.0 mm
05:37 AM 54.1°F12.3°C 48.4°F9.1°C 81% 6.9 mph W11.1 kmh W 12.1 mph19.5 kmh 29.90 in1012.5 mb 0.00 in0.0 mm 0.00 in/hr0.0 mm/hr 0.00 in0.0 mm
05:32 AM 54.1°F12.3°C 48.4°F9.1°C 81% 10.7 mph S17.2 kmh S 19.7 mph31.7 kmh 29.91 in1012.9 mb 0.00 in0.0 mm 0.00 in/hr0.0 mm/hr 0.00 in0.0 mm
05:27 AM 54.0°F12.2°C 48.3°F9.1°C 81% 8.3 mph NW13.4 kmh NW 13.0 mph20.9 kmh 29.90 in1012.5 mb 0.00 in0.0 mm 0.00 in/hr0.0 mm/hr 0.00 in0.0 mm
05:22 AM 54.0°F12.2°C 48.3°F9.1°C 81% 7.6 mph 12.2 kmh 14.5 mph23.3 kmh 29.91 in1012.9 mb 0.00 in0.0 mm 0.00 in/hr0.0 mm/hr 0.00 in0.0 mm
05:17 AM 54.0°F12.2°C 48.3°F9.1°C 81% 9.2 mph SW14.8 kmh SW 14.5 mph23.3 kmh 29.91 in1012.9 mb 0.00 in0.0 mm 0.00 in/hr0.0 mm/hr 0.00 in0.0 mm
05:12 AM 54.0°F12.2°C 48.6°F9.2°C 82% 9.2 mph NW14.8 kmh NW 13.6 mph21.9 kmh 29.91 in1012.9 mb 0.00 in0.0 mm 0.00 in/hr0.0 mm/hr 0.00 in0.0 mm
05:07 AM 54.0°F12.2°C 48.6°F9.2°C 82% 7.6 mph WNW12.2 kmh WNW 10.7 mph17.2 kmh 29.91 in1012.9 mb 0.00 in0.0 mm 0.00 in/hr0.0 mm/hr 0.00 in0.0 mm
05:02 AM 54.0°F12.2°C 48.6°F9.2°C 82% 8.3 mph SW13.4 kmh SW 13.6 mph21.9 kmh 29.91 in1012.9 mb 0.00 in0.0 mm 0.00 in/hr0.0 mm/hr 0.00 in0.0 mm
04:57 AM 54.0°F12.2°C 48.6°F9.2°C 82% 8.3 mph SW13.4 kmh SW 14.5 mph23.3 kmh 29.91 in1012.9 mb 0.00 in0.0 mm 0.00 in/hr0.0 mm/hr 0.00 in0.0 mm
04:52 AM 54.0°F12.2°C 48.6°F9.2°C 82% 8.3 mph NW13.4 kmh NW 12.1 mph19.5 kmh 29.92 in1013.2 mb 0.00 in0.0 mm 0.00 in/hr0.0 mm/hr 0.00 in0.0 mm
04:47 AM 54.0°F12.2°C 48.6°F9.2°C 82% 7.6 mph SE12.2 kmh SE 12.1 mph19.5 kmh 29.92 in1013.2 mb 0.00 in0.0 mm 0.00 in/hr0.0 mm/hr 0.00 in0.0 mm
04:42 AM 54.0°F12.2°C 48.3°F9.1°C 81% 11.4 mph SSW18.3 kmh SSW 17.4 mph28.0 kmh 29.92 in1013.2 mb 0.00 in0.0 mm 0.00 in/hr0.0 mm/hr 0.00 in0.0 mm
04:37 AM 54.0°F12.2°C 48.3°F9.1°C 81% 7.6 mph SW12.2 kmh SW 12.1 mph19.5 kmh 29.92 in1013.2 mb 0.00 in0.0 mm 0.00 in/hr0.0 mm/hr 0.00 in0.0 mm
04:32 AM 54.1°F12.3°C 48.4°F9.1°C 81% 17.4 mph NNW28.0 kmh NNW 21.3 mph34.3 kmh 29.92 in1013.2 mb 0.00 in0.0 mm 0.00 in/hr0.0 mm/hr 0.00 in0.0 mm
04:27 AM 54.1°F12.3°C 48.4°F9.1°C 81% 7.6 mph W12.2 kmh W 12.1 mph19.5 kmh 29.93 in1013.5 mb 0.00 in0.0 mm 0.00 in/hr0.0 mm/hr 0.00 in0.0 mm
04:22 AM 54.1°F12.3°C 48.4°F9.1°C 81% 10.7 mph S17.2 kmh S 14.5 mph23.3 kmh 29.92 in1013.2 mb 0.00 in0.0 mm 0.00 in/hr0.0 mm/hr 0.00 in0.0 mm
04:17 AM 54.1°F12.3°C 48.4°F9.1°C 81% 10.7 mph SW17.2 kmh SW 15.2 mph24.5 kmh 29.93 in1013.5 mb 0.00 in0.0 mm 0.00 in/hr0.0 mm/hr 0.00 in0.0 mm
04:12 AM 54.3°F12.4°C 48.6°F9.2°C 81% 9.2 mph SW14.8 kmh SW 16.8 mph27.0 kmh 29.93 in1013.5 mb 0.00 in0.0 mm 0.00 in/hr0.0 mm/hr 0.00 in0.0 mm
04:07 AM 54.3°F12.4°C 48.6°F9.2°C 81% 6.9 mph NW11.1 kmh NW 10.7 mph17.2 kmh 29.93 in1013.5 mb 0.00 in0.0 mm 0.00 in/hr0.0 mm/hr 0.00 in0.0 mm
04:02 AM 54.3°F12.4°C 48.6°F9.2°C 81% 6.9 mph NW11.1 kmh NW 10.7 mph17.2 kmh 29.93 in1013.5 mb 0.00 in0.0 mm 0.00 in/hr0.0 mm/hr 0.00 in0.0 mm
03:57 AM 54.3°F12.4°C 48.6°F9.2°C 81% 13.6 mph NW21.9 kmh NW 21.3 mph34.3 kmh 29.93 in1013.5 mb 0.00 in0.0 mm 0.00 in/hr0.0 mm/hr 0.00 in0.0 mm
03:52 AM 54.3°F12.4°C 48.9°F9.4°C 82% 11.4 mph WNW18.3 kmh WNW 17.4 mph28.0 kmh 29.93 in1013.5 mb 0.00 in0.0 mm 0.00 in/hr0.0 mm/hr 0.00 in0.0 mm
03:47 AM 54.3°F12.4°C 48.9°F9.4°C 82% 9.2 mph NW14.8 kmh NW 15.2 mph24.5 kmh 29.93 in1013.5 mb 0.00 in0.0 mm 0.00 in/hr0.0 mm/hr 0.00 in0.0 mm
03:42 AM 54.1°F12.3°C 48.8°F9.3°C 82% 10.7 mph SW17.2 kmh SW 17.4 mph28.0 kmh 29.93 in1013.5 mb 0.00 in0.0 mm 0.00 in/hr0.0 mm/hr 0.00 in0.0 mm
03:37 AM 54.1°F12.3°C 48.8°F9.3°C 82% 13.6 mph SW21.9 kmh SW 19.0 mph30.6 kmh 29.94 in1013.9 mb 0.00 in0.0 mm 0.00 in/hr0.0 mm/hr 0.00 in0.0 mm
03:32 AM 54.1°F12.3°C 48.8°F9.3°C 82% 9.8 mph NW15.8 kmh NW 15.9 mph25.6 kmh 29.94 in1013.9 mb 0.00 in0.0 mm 0.00 in/hr0.0 mm/hr 0.00 in0.0 mm
03:27 AM 54.1°F12.3°C 48.8°F9.3°C 82% 13.0 mph S20.9 kmh S 18.3 mph29.5 kmh 29.94 in1013.9 mb 0.00 in0.0 mm 0.00 in/hr0.0 mm/hr 0.00 in0.0 mm
03:22 AM 54.1°F12.3°C 48.8°F9.3°C 82% 8.3 mph SW13.4 kmh SW 15.2 mph24.5 kmh 29.94 in1013.9 mb 0.00 in0.0 mm 0.00 in/hr0.0 mm/hr 0.00 in0.0 mm
03:17 AM 54.1°F12.3°C 48.8°F9.3°C 82% 12.1 mph ESE19.5 kmh ESE 15.2 mph24.5 kmh 29.94 in1013.9 mb 0.00 in0.0 mm 0.00 in/hr0.0 mm/hr 0.00 in0.0 mm
03:12 AM 54.0°F12.2°C 48.9°F9.4°C 83% 17.4 mph NW28.0 kmh NW 22.1 mph35.6 kmh 29.94 in1013.9 mb 0.00 in0.0 mm 0.00 in/hr0.0 mm/hr 0.00 in0.0 mm
03:07 AM 54.0°F12.2°C 48.9°F9.4°C 83% 9.2 mph NW14.8 kmh NW 15.9 mph25.6 kmh 29.94 in1013.9 mb 0.00 in0.0 mm 0.00 in/hr0.0 mm/hr 0.00 in0.0 mm
03:02 AM 54.0°F12.2°C 48.9°F9.4°C 83% 10.7 mph SW17.2 kmh SW 14.5 mph23.3 kmh 29.95 in1014.2 mb 0.00 in0.0 mm 0.00 in/hr0.0 mm/hr 0.00 in0.0 mm
02:57 AM 54.0°F12.2°C 48.9°F9.4°C 83% 11.4 mph NW18.3 kmh NW 14.5 mph23.3 kmh 29.94 in1013.9 mb 0.00 in0.0 mm 0.00 in/hr0.0 mm/hr 0.00 in0.0 mm
02:52 AM 54.1°F12.3°C 49.1°F9.5°C 83% 15.2 mph SW24.5 kmh SW 18.3 mph29.5 kmh 29.94 in1013.9 mb 0.00 in0.0 mm 0.00 in/hr0.0 mm/hr 0.00 in0.0 mm
02:47 AM 54.1°F12.3°C 49.1°F9.5°C 83% 11.4 mph W18.3 kmh W 17.4 mph28.0 kmh 29.95 in1014.2 mb 0.00 in0.0 mm 0.00 in/hr0.0 mm/hr 0.00 in0.0 mm
02:42 AM 54.1°F12.3°C 49.1°F9.5°C 83% 15.9 mph S25.6 kmh S 20.6 mph33.2 kmh 29.94 in1013.9 mb 0.00 in0.0 mm 0.00 in/hr0.0 mm/hr 0.00 in0.0 mm
02:37 AM 54.1°F12.3°C 49.1°F9.5°C 83% 10.7 mph NW17.2 kmh NW 16.8 mph27.0 kmh 29.94 in1013.9 mb 0.00 in0.0 mm 0.00 in/hr0.0 mm/hr 0.00 in0.0 mm
02:32 AM 54.1°F12.3°C 49.1°F9.5°C 83% 8.3 mph NW13.4 kmh NW 15.2 mph24.5 kmh 29.94 in1013.9 mb 0.00 in0.0 mm 0.00 in/hr0.0 mm/hr 0.00 in0.0 mm
02:27 AM 54.1°F12.3°C 49.1°F9.5°C 83% 9.8 mph SW15.8 kmh SW 16.8 mph27.0 kmh 29.94 in1013.9 mb 0.00 in0.0 mm 0.00 in/hr0.0 mm/hr 0.00 in0.0 mm
02:22 AM 54.1°F12.3°C 49.1°F9.5°C 83% 10.7 mph 17.2 kmh 18.3 mph29.5 kmh 29.94 in1013.9 mb 0.00 in0.0 mm 0.00 in/hr0.0 mm/hr 0.00 in0.0 mm
02:17 AM 54.1°F12.3°C 49.1°F9.5°C 83% 12.1 mph NW19.5 kmh NW 21.3 mph34.3 kmh 29.95 in1014.2 mb 0.00 in0.0 mm 0.00 in/hr0.0 mm/hr 0.00 in0.0 mm
02:12 AM 54.1°F12.3°C 49.1°F9.5°C 83% 14.5 mph WNW23.3 kmh WNW 22.1 mph35.6 kmh 29.94 in1013.9 mb 0.00 in0.0 mm 0.00 in/hr0.0 mm/hr 0.00 in0.0 mm
02:07 AM 54.1°F12.3°C 48.8°F9.3°C 82% 7.6 mph W12.2 kmh W 13.6 mph21.9 kmh 29.94 in1013.9 mb 0.00 in0.0 mm 0.00 in/hr0.0 mm/hr 0.00 in0.0 mm
02:02 AM 54.1°F12.3°C 48.8°F9.3°C 82% 7.6 mph W12.2 kmh W 13.6 mph21.9 kmh 29.94 in1013.9 mb 0.00 in0.0 mm 0.00 in/hr0.0 mm/hr 0.00 in0.0 mm
01:57 AM 54.1°F12.3°C 48.8°F9.3°C 82% 8.3 mph NW13.4 kmh NW 13.0 mph20.9 kmh 29.94 in1013.9 mb 0.00 in0.0 mm 0.00 in/hr0.0 mm/hr 0.00 in0.0 mm
01:52 AM 54.3°F12.4°C 48.9°F9.4°C 82% 12.1 mph SW19.5 kmh SW 15.2 mph24.5 kmh 29.94 in1013.9 mb 0.00 in0.0 mm 0.00 in/hr0.0 mm/hr 0.00 in0.0 mm
01:47 AM 54.3°F12.4°C 48.9°F9.4°C 82% 9.8 mph SW15.8 kmh SW 14.5 mph23.3 kmh 29.94 in1013.9 mb 0.00 in0.0 mm 0.00 in/hr0.0 mm/hr 0.00 in0.0 mm
01:42 AM 54.5°F12.5°C 49.1°F9.5°C 82% 9.8 mph NW15.8 kmh NW 17.4 mph28.0 kmh 29.94 in1013.9 mb 0.00 in0.0 mm 0.00 in/hr0.0 mm/hr 0.00 in0.0 mm
01:37 AM 54.7°F12.6°C 49.3°F9.6°C 82% 9.8 mph WNW15.8 kmh WNW 16.8 mph27.0 kmh 29.94 in1013.9 mb 0.00 in0.0 mm 0.00 in/hr0.0 mm/hr 0.00 in0.0 mm
01:32 AM 54.7°F12.6°C 49.3°F9.6°C 82% 9.8 mph NW15.8 kmh NW 15.2 mph24.5 kmh 29.94 in1013.9 mb 0.00 in0.0 mm 0.00 in/hr0.0 mm/hr 0.00 in0.0 mm
01:27 AM 54.9°F12.7°C 49.5°F9.7°C 82% 11.4 mph NW18.3 kmh NW 18.3 mph29.5 kmh 29.95 in1014.2 mb 0.00 in0.0 mm 0.00 in/hr0.0 mm/hr 0.00 in0.0 mm
01:22 AM 54.9°F12.7°C 49.5°F9.7°C 82% 13.0 mph NNW20.9 kmh NNW 22.1 mph35.6 kmh 29.95 in1014.2 mb 0.00 in0.0 mm 0.00 in/hr0.0 mm/hr 0.00 in0.0 mm
01:17 AM 54.9°F12.7°C 49.5°F9.7°C 82% 18.3 mph 29.5 kmh 26.6 mph42.8 kmh 29.95 in1014.2 mb 0.00 in0.0 mm 0.00 in/hr0.0 mm/hr 0.00 in0.0 mm
01:12 AM 54.9°F12.7°C 49.5°F9.7°C 82% 14.5 mph SE23.3 kmh SE 19.7 mph31.7 kmh 29.94 in1013.9 mb 0.00 in0.0 mm 0.00 in/hr0.0 mm/hr 0.00 in0.0 mm
01:07 AM 54.9°F12.7°C 49.5°F9.7°C 82% 9.2 mph NNW14.8 kmh NNW 13.0 mph20.9 kmh 29.95 in1014.2 mb 0.00 in0.0 mm 0.00 in/hr0.0 mm/hr 0.00 in0.0 mm
01:02 AM 54.9°F12.7°C 49.5°F9.7°C 82% 13.0 mph NW20.9 kmh NW 20.6 mph33.2 kmh 29.94 in1013.9 mb 0.00 in0.0 mm 0.00 in/hr0.0 mm/hr 0.00 in0.0 mm
12:57 AM 55.0°F12.8°C 49.6°F9.8°C 82% 12.1 mph NW19.5 kmh NW 21.3 mph34.3 kmh 29.95 in1014.2 mb 0.00 in0.0 mm 0.00 in/hr0.0 mm/hr 0.00 in0.0 mm
12:52 AM 55.2°F12.9°C 49.5°F9.7°C 81% 16.8 mph SW27.0 kmh SW 22.1 mph35.6 kmh 29.94 in1013.9 mb 0.00 in0.0 mm 0.00 in/hr0.0 mm/hr 0.00 in0.0 mm
12:47 AM 55.4°F13.0°C 49.3°F9.6°C 80% 11.4 mph NW18.3 kmh NW 16.8 mph27.0 kmh 29.95 in1014.2 mb 0.00 in0.0 mm 0.00 in/hr0.0 mm/hr 0.00 in0.0 mm
12:42 AM 55.4°F13.0°C 49.3°F9.6°C 80% 16.8 mph NW27.0 kmh NW 21.3 mph34.3 kmh 29.94 in1013.9 mb 0.00 in0.0 mm 0.00 in/hr0.0 mm/hr 0.00 in0.0 mm
12:37 AM 55.4°F13.0°C 49.3°F9.6°C 80% 16.8 mph NW27.0 kmh NW 20.6 mph33.2 kmh 29.94 in1013.9 mb 0.00 in0.0 mm 0.00 in/hr0.0 mm/hr 0.00 in0.0 mm
12:32 AM 55.4°F13.0°C 49.7°F9.8°C 81% 15.2 mph S24.5 kmh S 24.4 mph39.3 kmh 29.94 in1013.9 mb 0.00 in0.0 mm 0.00 in/hr0.0 mm/hr 0.00 in0.0 mm
12:27 AM 55.2°F12.9°C 49.8°F9.9°C 82% 19.7 mph W31.7 kmh W 27.3 mph43.9 kmh 29.94 in1013.9 mb 0.00 in0.0 mm 0.00 in/hr0.0 mm/hr 0.00 in0.0 mm
12:22 AM 55.2°F12.9°C 49.8°F9.9°C 82% 13.0 mph W20.9 kmh W 17.4 mph28.0 kmh 29.94 in1013.9 mb 0.00 in0.0 mm 0.00 in/hr0.0 mm/hr 0.00 in0.0 mm
12:17 AM 55.4°F13.0°C 50.0°F10.0°C 82% 13.0 mph 20.9 kmh 19.7 mph31.7 kmh 29.94 in1013.9 mb 0.00 in0.0 mm 0.00 in/hr0.0 mm/hr 0.00 in0.0 mm
12:12 AM 55.4°F13.0°C 50.0°F10.0°C 82% 16.8 mph SW27.0 kmh SW 25.1 mph40.4 kmh 29.94 in1013.9 mb 0.00 in0.0 mm 0.00 in/hr0.0 mm/hr 0.00 in0.0 mm
12:07 AM 55.2°F12.9°C 49.8°F9.9°C 82% 11.4 mph NW18.3 kmh NW 21.3 mph34.3 kmh 29.94 in1013.9 mb 0.00 in0.0 mm 0.00 in/hr0.0 mm/hr 0.00 in0.0 mm
12:02 AM 55.2°F12.9°C 49.8°F9.9°C 82% 11.4 mph NW18.3 kmh NW 21.3 mph34.3 kmh 29.94 in1013.9 mb 0.00 in0.0 mm 0.00 in/hr0.0 mm/hr 0.00 in0.0 mm